Time;durP1;ratioP1;P1;durP2;ratioP2;P2;SDS_P1;SDS_P2;PMS_P1;PMS_P2;Temp;Humidity;BMP_temperature;BMP_pressure;BME280_temperature;BME280_humidity;BME280_pressure;Samples;Min_cycle;Max_cycle;Signal;HPM_P1;HPM_P2
2023/02/09 00:00:53;;;;;;;;;;;;;;;3.30;nan;103769.69;5032427;28;19917;-83
2023/02/09 00:03:18;;;;;;;;;;;;;;;3.28;nan;103766.31;5032173;28;20020;-82
2023/02/09 00:05:44;;;;;;;;;;;;;;;3.20;nan;103774.03;5030923;28;19924;-82
2023/02/09 00:08:09;;;;;;;;;;;;;;;3.16;nan;103764.66;5026239;28;19918;-82
2023/02/09 00:10:34;;;;;;;;;;;;;;;3.18;nan;103751.28;5020243;28;20367;-82
2023/02/09 00:15:54;;;;;;;;;;;;;;;3.24;nan;103742.84;5021274;28;19986;-82
2023/02/09 00:18:20;;;;;;;;;;;;;;;3.23;nan;103739.38;5020836;28;19925;-82
2023/02/09 00:20:53;;;;;;;;;;;;;;;3.21;nan;103735.13;5020840;28;19924;-82
2023/02/09 00:23:19;;;;;;;;;;;;;;;3.18;nan;103735.38;5019480;28;19929;-82
2023/02/09 00:25:44;;;;;;;;;;;;;;;3.17;nan;103737.19;5021907;28;20445;-82
2023/02/09 00:28:09;;;;;;;;;;;;;;;3.13;nan;103734.94;5020633;28;20337;-82
2023/02/09 00:30:35;;;;;;;;;;;;;;;3.13;nan;103746.38;5023133;28;20128;-81
2023/02/09 00:33:01;;;;;;;;;;;;;;;3.16;nan;103740.81;5020254;28;20425;-82
2023/02/09 00:35:26;;;;;;;;;;;;;;;3.11;nan;103737.72;5016981;28;19932;-82
2023/02/09 00:37:52;;;;;;;;;;;;;;;3.09;nan;103731.69;5019326;28;19959;-81
2023/02/09 00:40:17;;;;;;;;;;;;;;;3.09;nan;103728.22;5018546;28;20399;-82
2023/02/09 00:42:42;;;;;;;;;;;;;;;3.07;nan;103720.41;5018991;28;19940;-82
2023/02/09 00:45:08;;;;;;;;;;;;;;;3.07;nan;103720.41;5014391;28;20039;-81
2023/02/09 00:47:33;;;;;;;;;;;;;;;3.06;nan;103718.72;5015308;28;20000;-81
2023/02/09 00:49:59;;;;;;;;;;;;;;;3.01;nan;103728.81;5005958;28;20281;-82
2023/02/09 00:52:24;;;;;;;;;;;;;;;2.99;nan;103726.31;5015826;28;19930;-81
2023/02/09 00:54:49;;;;;;;;;;;;;;;2.97;nan;103727.41;5016623;28;19917;-81
2023/02/09 00:57:15;;;;;;;;;;;;;;;2.95;nan;103721.38;5018222;28;20071;-82
2023/02/09 00:59:41;;;;;;;;;;;;;;;2.92;nan;103721.63;5016460;28;19925;-81
2023/02/09 01:02:06;;;;;;;;;;;;;;;2.88;nan;103718.41;5018238;28;20386;-81
2023/02/09 01:04:32;;;;;;;;;;;;;;;2.88;nan;103718.41;5021432;28;19917;-81
2023/02/09 01:06:57;;;;;;;;;;;;;;;2.84;nan;103713.47;5015732;28;19971;-81
2023/02/09 01:09:23;;;;;;;;;;;;;;;2.81;nan;103713.72;5014031;28;20379;-81
2023/02/09 01:11:48;;;;;;;;;;;;;;;2.80;nan;103712.03;5016778;28;19980;-81
2023/02/09 01:14:14;;;;;;;;;;;;;;;2.81;nan;103709.25;5019996;28;19925;-81
2023/02/09 01:16:39;;;;;;;;;;;;;;;2.82;nan;103715.41;5021645;28;19922;-81
2023/02/09 01:19:04;;;;;;;;;;;;;;;2.76;nan;103721.19;5017543;28;19917;-82
2023/02/09 01:21:30;;;;;;;;;;;;;;;2.69;nan;103719.06;5022080;28;20059;-82
2023/02/09 01:23:55;;;;;;;;;;;;;;;2.64;nan;103713.25;5015528;28;19921;-81
2023/02/09 01:26:21;;;;;;;;;;;;;;;2.61;nan;103715.31;5017041;28;20175;-81
2023/02/09 01:28:50;;;;;;;;;;;;;;;2.61;nan;103700.28;5017385;28;19917;-81
2023/02/09 01:31:26;;;;;;;;;;;;;;;2.60;nan;103700.41;5018444;28;19932;-82
2023/02/09 01:33:52;;;;;;;;;;;;;;;2.56;nan;103688.41;5017398;28;19984;-82
2023/02/09 01:36:18;;;;;;;;;;;;;;;2.55;nan;103692.84;5019696;28;19921;-81
2023/02/09 01:38:44;;;;;;;;;;;;;;;2.53;nan;103678.91;5014231;28;19967;-82
2023/02/09 01:41:12;;;;;;;;;;;;;;;2.49;nan;103671.31;5016883;28;19971;-81
2023/02/09 01:43:54;;;;;;;;;;;;;;;2.48;nan;103666.97;5018148;28;20366;-82
2023/02/09 01:46:20;;;;;;;;;;;;;;;2.50;nan;103663.25;5017264;28;19979;-81
2023/02/09 01:48:48;;;;;;;;;;;;;;;2.51;nan;103664.91;5016413;28;19917;-82
2023/02/09 01:51:13;;;;;;;;;;;;;;;2.52;nan;103656.03;5017513;28;19917;-81
2023/02/09 01:53:39;;;;;;;;;;;;;;;2.52;nan;103640.16;5018958;28;20301;-81
2023/02/09 01:56:10;;;;;;;;;;;;;;;2.55;nan;103641.72;5018247;28;19928;-82
2023/02/09 01:58:35;;;;;;;;;;;;;;;2.55;nan;103639.91;5018004;28;19925;-81
2023/02/09 02:01:01;;;;;;;;;;;;;;;2.51;nan;103635.81;5017483;28;19921;-82
2023/02/09 02:03:27;;;;;;;;;;;;;;;2.48;nan;103633.41;5018064;28;20002;-81
2023/02/09 02:05:56;;;;;;;;;;;;;;;2.52;nan;103641.97;5018515;28;19917;-81
2023/02/09 02:08:25;;;;;;;;;;;;;;;2.55;nan;103633.78;5018011;28;20485;-81
2023/02/09 02:10:51;;;;;;;;;;;;;;;2.57;nan;103637.97;5018965;28;20401;-81
2023/02/09 02:13:17;;;;;;;;;;;;;;;2.59;nan;103638.69;5017229;28;19930;-81
2023/02/09 02:15:57;;;;;;;;;;;;;;;2.61;nan;103635.91;5021046;28;19917;-81
2023/02/09 02:18:30;;;;;;;;;;;;;;;2.59;nan;103628.09;5024299;28;20283;-84
2023/02/09 02:21:14;;;;;;;;;;;;;;;2.59;nan;103625.44;5029770;28;19920;-83
2023/02/09 02:23:40;;;;;;;;;;;;;;;2.60;nan;103621.84;5035003;28;19913;-82
2023/02/09 02:26:20;;;;;;;;;;;;;;;2.62;nan;103619.91;5035013;28;19920;-83
2023/02/09 02:29:02;;;;;;;;;;;;;;;2.58;nan;103613.19;5035173;28;19917;-83
2023/02/09 02:31:27;;;;;;;;;;;;;;;2.59;nan;103606.94;5035370;28;19921;-84
2023/02/09 02:34:13;;;;;;;;;;;;;;;2.55;nan;103594.91;5034975;28;19920;-83
2023/02/09 02:36:45;;;;;;;;;;;;;;;2.47;nan;103602.63;5015462;28;20379;-83
2023/02/09 02:39:25;;;;;;;;;;;;;;;2.44;nan;103600.22;5025869;28;19917;-84
2023/02/09 02:44:42;;;;;;;;;;;;;;;2.40;nan;103582.94;5033368;28;20012;-83
2023/02/09 02:47:10;;;;;;;;;;;;;;;2.39;nan;103586.53;5034988;28;19963;-83
2023/02/09 02:49:42;;;;;;;;;;;;;;;2.34;nan;103581.63;5034614;28;20210;-85
2023/02/09 02:52:08;;;;;;;;;;;;;;;2.32;nan;103588.00;5034206;28;19937;-83
2023/02/09 02:54:53;;;;;;;;;;;;;;;2.29;nan;103577.66;5035068;28;19962;-82
2023/02/09 02:57:22;;;;;;;;;;;;;;;2.32;nan;103574.75;5035304;28;20390;-84
2023/02/09 02:59:51;;;;;;;;;;;;;;;2.36;nan;103576.22;5034633;28;20375;-84
2023/02/09 03:02:21;;;;;;;;;;;;;;;2.35;nan;103578.03;5034860;28;20444;-83
2023/02/09 03:04:49;;;;;;;;;;;;;;;2.34;nan;103559.63;5034505;28;19913;-83
2023/02/09 03:07:15;;;;;;;;;;;;;;;2.34;nan;103564.91;5034319;28;19924;-82
2023/02/09 03:09:51;;;;;;;;;;;;;;;2.34;nan;103557.81;5034330;28;20394;-83
2023/02/09 03:12:17;;;;;;;;;;;;;;;2.34;nan;103557.81;5033542;28;19921;-83
2023/02/09 03:15:02;;;;;;;;;;;;;;;2.30;nan;103560.81;5033186;28;19920;-84
2023/02/09 03:17:35;;;;;;;;;;;;;;;2.29;nan;103561.78;5021467;28;19917;-83
2023/02/09 03:20:04;;;;;;;;;;;;;;;2.26;nan;103554.09;5030906;28;19967;-82
2023/02/09 03:22:30;;;;;;;;;;;;;;;2.24;nan;103556.88;5028041;28;19924;-83
2023/02/09 03:25:06;;;;;;;;;;;;;;;2.23;nan;103551.72;5033484;28;19917;-83
2023/02/09 03:27:37;;;;;;;;;;;;;;;2.19;nan;103555.56;5034147;28;19999;-81
2023/02/09 03:30:04;;;;;;;;;;;;;;;2.16;nan;103550.53;5021234;28;19992;-81
2023/02/09 03:32:30;;;;;;;;;;;;;;;2.10;nan;103544.75;5021492;28;19929;-81
2023/02/09 03:34:56;;;;;;;;;;;;;;;2.10;nan;103542.13;5023061;28;19932;-80
2023/02/09 03:37:21;;;;;;;;;;;;;;;2.12;nan;103541.97;5021073;28;19917;-81
2023/02/09 03:39:47;;;;;;;;;;;;;;;2.09;nan;103543.06;5023171;28;19996;-81
2023/02/09 03:42:12;;;;;;;;;;;;;;;2.07;nan;103536.22;5019301;28;19925;-82
2023/02/09 03:44:38;;;;;;;;;;;;;;;2.05;nan;103533.72;5023252;28;20413;-81
2023/02/09 03:47:05;;;;;;;;;;;;;;;2.05;nan;103530.22;5022010;28;20121;-81
2023/02/09 03:49:34;;;;;;;;;;;;;;;2.04;nan;103525.91;5018860;28;20109;-81
2023/02/09 03:52:00;;;;;;;;;;;;;;;2.00;nan;103527.97;5019914;28;20032;-81
2023/02/09 03:54:26;;;;;;;;;;;;;;;1.98;nan;103524.63;5020954;28;20007;-81
2023/02/09 03:56:52;;;;;;;;;;;;;;;1.94;nan;103515.22;5021300;28;19925;-81
2023/02/09 03:59:17;;;;;;;;;;;;;;;1.91;nan;103504.91;5020182;28;20343;-81
2023/02/09 04:01:43;;;;;;;;;;;;;;;1.89;nan;103509.47;5020410;28;19932;-80
2023/02/09 04:04:08;;;;;;;;;;;;;;;1.92;nan;103503.94;5017669;28;19971;-81
2023/02/09 04:06:34;;;;;;;;;;;;;;;1.95;nan;103503.69;5019691;28;19972;-81
2023/02/09 04:09:00;;;;;;;;;;;;;;;1.94;nan;103495.88;5019399;28;20024;-83
2023/02/09 04:11:27;;;;;;;;;;;;;;;1.91;nan;103496.13;5019600;28;19921;-82
2023/02/09 04:13:52;;;;;;;;;;;;;;;1.89;nan;103492.78;5017259;28;19960;-82
2023/02/09 04:16:18;;;;;;;;;;;;;;;1.87;nan;103497.34;5020184;28;19975;-83
2023/02/09 04:18:44;;;;;;;;;;;;;;;1.83;nan;103491.47;5021703;28;20298;-82
2023/02/09 04:21:09;;;;;;;;;;;;;;;1.85;nan;103493.97;5019859;28;20505;-82
2023/02/09 04:23:35;;;;;;;;;;;;;;;1.87;nan;103492.91;5017990;28;19925;-81
2023/02/09 04:26:01;;;;;;;;;;;;;;;1.89;nan;103483.03;5019577;28;20352;-82
2023/02/09 04:28:26;;;;;;;;;;;;;;;1.88;nan;103486.63;5020440;28;19926;-81
2023/02/09 04:30:53;;;;;;;;;;;;;;;1.89;nan;103480.38;5018988;28;19916;-82
2023/02/09 04:33:18;;;;;;;;;;;;;;;1.89;nan;103482.19;5019885;28;19921;-82
2023/02/09 04:35:44;;;;;;;;;;;;;;;1.90;nan;103473.28;5018928;28;19932;-81
2023/02/09 04:38:10;;;;;;;;;;;;;;;1.88;nan;103465.50;5020123;28;19969;-81
2023/02/09 04:40:35;;;;;;;;;;;;;;;1.88;nan;103464.66;5022129;28;19917;-82
2023/02/09 04:43:00;;;;;;;;;;;;;;;1.87;nan;103460.34;5019901;28;19927;-81
2023/02/09 04:45:26;;;;;;;;;;;;;;;1.83;nan;103459.75;5017814;28;19955;-82
2023/02/09 04:47:51;;;;;;;;;;;;;;;1.87;nan;103455.88;5014652;28;19945;-81
2023/02/09 04:50:16;;;;;;;;;;;;;;;1.82;nan;103460.72;5020698;28;19921;-81
2023/02/09 04:52:42;;;;;;;;;;;;;;;1.82;nan;103452.78;5018669;28;19921;-82
2023/02/09 04:55:07;;;;;;;;;;;;;;;1.84;nan;103452.66;5019039;28;20481;-82
2023/02/09 05:00:17;;;;;;;;;;;;;;;1.86;nan;103450.72;5018223;28;19928;-81
2023/02/09 05:02:42;;;;;;;;;;;;;;;1.82;nan;103447.50;5019320;28;20309;-82
2023/02/09 05:05:07;;;;;;;;;;;;;;;1.78;nan;103449.53;5018968;28;19944;-82
2023/02/09 05:07:33;;;;;;;;;;;;;;;1.80;nan;103452.06;5021921;28;19920;-82
2023/02/09 05:09:58;;;;;;;;;;;;;;;1.80;nan;103452.06;5017128;28;19920;-81
2023/02/09 05:12:24;;;;;;;;;;;;;;;1.79;nan;103459.13;5020831;28;19921;-81
2023/02/09 05:14:49;;;;;;;;;;;;;;;1.76;nan;103456.75;5019459;28;19917;-80
2023/02/09 05:17:19;;;;;;;;;;;;;;;1.73;nan;103453.50;5018681;28;19987;-82
2023/02/09 05:19:45;;;;;;;;;;;;;;;1.71;nan;103447.50;5018711;28;20299;-81
2023/02/09 05:22:10;;;;;;;;;;;;;;;1.71;nan;103447.50;5016200;28;19925;-81
2023/02/09 05:24:35;;;;;;;;;;;;;;;1.72;nan;103446.53;5019822;28;20452;-81
2023/02/09 05:27:01;;;;;;;;;;;;;;;1.71;nan;103442.22;5017539;28;20332;-81
2023/02/09 05:29:26;;;;;;;;;;;;;;;1.69;nan;103431.78;5017958;28;19952;-81
2023/02/09 05:31:51;;;;;;;;;;;;;;;1.68;nan;103437.19;5018155;28;19982;-81
2023/02/09 05:34:17;;;;;;;;;;;;;;;1.65;nan;103442.72;5019898;28;19918;-82
2023/02/09 05:36:42;;;;;;;;;;;;;;;1.65;nan;103442.72;5020012;28;20060;-81
2023/02/09 05:39:07;;;;;;;;;;;;;;;1.63;nan;103445.50;5020032;28;19917;-81
2023/02/09 05:44:17;;;;;;;;;;;;;;;1.51;nan;103436.75;5017134;28;19931;-82
2023/02/09 05:46:42;;;;;;;;;;;;;;;1.46;nan;103436.28;5016989;28;20019;-81
2023/02/09 05:49:08;;;;;;;;;;;;;;;1.45;nan;103428.47;5019297;28;19917;-81
2023/02/09 05:51:33;;;;;;;;;;;;;;;1.48;nan;103426.41;5019362;28;19925;-81
2023/02/09 05:53:59;;;;;;;;;;;;;;;1.47;nan;103419.47;5017459;28;19925;-81
2023/02/09 05:56:24;;;;;;;;;;;;;;;1.47;nan;103423.91;5017751;28;19918;-81
2023/02/09 05:58:50;;;;;;;;;;;;;;;1.47;nan;103421.25;5023315;28;19936;-81
2023/02/09 06:01:15;;;;;;;;;;;;;;;1.43;nan;103411.88;5023062;28;19960;-81
2023/02/09 06:03:40;;;;;;;;;;;;;;;1.42;nan;103407.56;5021005;28;19917;-82
2023/02/09 06:06:06;;;;;;;;;;;;;;;1.41;nan;103414.66;5023724;28;19925;-81
2023/02/09 06:08:31;;;;;;;;;;;;;;;1.41;nan;103419.09;5024155;28;19972;-82
2023/02/09 06:10:56;;;;;;;;;;;;;;;1.41;nan;103412.00;5022287;28;19943;-82
2023/02/09 06:13:22;;;;;;;;;;;;;;;1.40;nan;103406.84;5022616;28;19968;-81
2023/02/09 06:15:47;;;;;;;;;;;;;;;1.39;nan;103410.44;5024609;28;19925;-82
2023/02/09 06:18:13;;;;;;;;;;;;;;;1.36;nan;103408.91;5022075;28;20344;-81
2023/02/09 06:20:38;;;;;;;;;;;;;;;1.33;nan;103403.03;5025512;28;19923;-81
2023/02/09 06:23:04;;;;;;;;;;;;;;;1.32;nan;103407.47;5020785;28;19917;-81
2023/02/09 06:25:29;;;;;;;;;;;;;;;1.32;nan;103409.28;5021998;28;19922;-81
2023/02/09 06:27:54;;;;;;;;;;;;;;;1.32;nan;103404.81;5021579;28;19924;-81
2023/02/09 06:30:20;;;;;;;;;;;;;;;1.33;nan;103406.50;5025009;28;19979;-81
2023/02/09 06:32:45;;;;;;;;;;;;;;;1.36;nan;103411.53;5026682;28;19980;-81
2023/02/09 06:35:10;;;;;;;;;;;;;;;1.38;nan;103411.41;5033268;28;19917;-81
2023/02/09 06:37:36;;;;;;;;;;;;;;;1.40;nan;103412.97;5024516;28;19921;-81
2023/02/09 06:40:01;;;;;;;;;;;;;;;1.43;nan;103412.72;5022212;28;19921;-81
2023/02/09 06:42:42;;;;;;;;;;;;;;;1.43;nan;103417.16;5025863;28;20283;-82
2023/02/09 06:45:16;;;;;;;;;;;;;;;1.41;nan;103417.28;5040687;28;20267;-81
2023/02/09 06:47:43;;;;;;;;;;;;;;;1.41;nan;103421.72;5022948;28;20366;-81
2023/02/09 06:50:09;;;;;;;;;;;;;;;1.39;nan;103418.38;5023331;28;19920;-81
2023/02/09 06:52:34;;;;;;;;;;;;;;;1.36;nan;103421.25;5026254;28;19935;-81
2023/02/09 06:54:59;;;;;;;;;;;;;;;1.37;nan;103425.59;5025881;28;20012;-81
2023/02/09 06:57:25;;;;;;;;;;;;;;;1.37;nan;103426.44;5023308;28;20409;-81
2023/02/09 06:59:50;;;;;;;;;;;;;;;1.40;nan;103418.25;5025352;28;19918;-81
2023/02/09 07:02:16;;;;;;;;;;;;;;;1.42;nan;103426.06;5023221;28;19918;-81
2023/02/09 07:04:41;;;;;;;;;;;;;;;1.43;nan;103433.84;5023174;28;19957;-81
2023/02/09 07:07:06;;;;;;;;;;;;;;;1.43;nan;103436.50;5028920;28;19925;-81
2023/02/09 07:09:32;;;;;;;;;;;;;;;1.45;nan;103436.41;5024999;28;20390;-81
2023/02/09 07:11:57;;;;;;;;;;;;;;;1.48;nan;103433.50;5023095;28;19988;-81
2023/02/09 07:14:23;;;;;;;;;;;;;;;1.52;nan;103438.41;5022185;28;19917;-81
2023/02/09 07:16:48;;;;;;;;;;;;;;;1.60;nan;103434.31;5024781;28;19925;-80
2023/02/09 07:19:14;;;;;;;;;;;;;;;1.68;nan;103431.91;5024683;28;20019;-81
2023/02/09 07:21:39;;;;;;;;;;;;;;;1.75;nan;103433.91;5029775;28;20381;-81
2023/02/09 07:24:05;;;;;;;;;;;;;;;1.87;nan;103431.25;5027741;28;19917;-82
2023/02/09 07:26:30;;;;;;;;;;;;;;;1.93;nan;103426.28;5027163;28;19986;-83
2023/02/09 07:28:55;;;;;;;;;;;;;;;1.99;nan;103430.25;5039016;28;19933;-81
2023/02/09 07:31:21;;;;;;;;;;;;;;;1.99;nan;103425.81;5026493;28;19917;-81
2023/02/09 07:33:46;;;;;;;;;;;;;;;2.08;nan;103422.38;5028947;28;19921;-81
2023/02/09 07:36:13;;;;;;;;;;;;;;;2.10;nan;103414.31;5029930;28;19921;-82
2023/02/09 07:38:39;;;;;;;;;;;;;;;2.12;nan;103415.03;5024543;28;20298;-81
2023/02/09 07:41:05;;;;;;;;;;;;;;;2.25;nan;103414.84;5025416;28;19917;-83
2023/02/09 07:43:31;;;;;;;;;;;;;;;2.24;nan;103423.75;5025698;28;19939;-81
2023/02/09 07:46:00;;;;;;;;;;;;;;;2.27;nan;103419.06;5027410;28;19921;-83
2023/02/09 07:48:25;;;;;;;;;;;;;;;2.27;nan;103412.91;5021633;28;19957;-82
2023/02/09 07:50:52;;;;;;;;;;;;;;;2.34;nan;103417.59;5018190;28;20449;-82
2023/02/09 07:53:17;;;;;;;;;;;;;;;2.40;nan;103419.72;5021125;28;19926;-82
2023/02/09 07:55:43;;;;;;;;;;;;;;;2.46;nan;103423.63;5020870;28;19998;-82
2023/02/09 07:58:08;;;;;;;;;;;;;;;2.48;nan;103420.84;5017843;28;19925;-81
2023/02/09 08:00:33;;;;;;;;;;;;;;;2.57;nan;103428.03;5021844;28;20012;-82
2023/02/09 08:02:59;;;;;;;;;;;;;;;2.64;nan;103430.03;5019417;28;19933;-82
2023/02/09 08:05:31;;;;;;;;;;;;;;;2.71;nan;103427.72;5019094;28;20325;-81
2023/02/09 08:07:56;;;;;;;;;;;;;;;2.81;nan;103422.44;5020569;28;19937;-82
2023/02/09 08:10:22;;;;;;;;;;;;;;;2.87;nan;103424.56;5018464;28;20410;-82
2023/02/09 08:13:01;;;;;;;;;;;;;;;2.98;nan;103424.50;5019855;28;19928;-81
2023/02/09 08:15:32;;;;;;;;;;;;;;;3.05;nan;103430.91;5020955;28;21389;-82
2023/02/09 08:17:58;;;;;;;;;;;;;;;3.14;nan;103422.19;5021827;28;19921;-83
2023/02/09 08:20:25;;;;;;;;;;;;;;;3.21;nan;103415.38;5020923;28;20370;-82
2023/02/09 08:22:53;;;;;;;;;;;;;;;3.31;nan;103428.66;5020665;28;19929;-82
2023/02/09 08:25:21;;;;;;;;;;;;;;;3.41;nan;103418.06;5018658;28;19917;-83
2023/02/09 08:27:47;;;;;;;;;;;;;;;3.45;nan;103425.66;5021459;28;20012;-83
2023/02/09 08:30:13;;;;;;;;;;;;;;;3.49;nan;103412.94;5015904;28;20000;-83
2023/02/09 08:32:39;;;;;;;;;;;;;;;3.57;nan;103413.09;5019356;28;19925;-83
2023/02/09 08:35:05;;;;;;;;;;;;;;;3.62;nan;103416.19;5021131;28;20105;-83
2023/02/09 08:37:30;;;;;;;;;;;;;;;3.72;nan;103421.50;5018040;28;20297;-84
2023/02/09 08:39:55;;;;;;;;;;;;;;;3.74;nan;103408.94;5019498;28;19914;-83
2023/02/09 08:42:21;;;;;;;;;;;;;;;3.85;nan;103416.78;5024501;28;20333;-84
2023/02/09 08:44:46;;;;;;;;;;;;;;;3.97;nan;103417.50;5020813;28;20007;-84
2023/02/09 08:47:11;;;;;;;;;;;;;;;4.02;nan;103402.81;5018198;28;19918;-85
2023/02/09 08:49:37;;;;;;;;;;;;;;;4.14;nan;103398.22;5019417;28;20297;-84
2023/02/09 08:52:02;;;;;;;;;;;;;;;4.25;nan;103411.31;5021862;28;19979;-84
2023/02/09 08:54:27;;;;;;;;;;;;;;;4.29;nan;103399.44;5017018;28;19980;-84
2023/02/09 08:56:53;;;;;;;;;;;;;;;4.32;nan;103393.03;5022091;28;19921;-84
2023/02/09 08:59:18;;;;;;;;;;;;;;;4.41;nan;103389.50;5016702;28;19924;-84
2023/02/09 09:01:47;;;;;;;;;;;;;;;4.52;nan;103382.22;5020738;28;20294;-85
2023/02/09 09:04:15;;;;;;;;;;;;;;;4.68;nan;103375.47;5021897;28;19983;-83
2023/02/09 09:06:41;;;;;;;;;;;;;;;4.78;nan;103368.28;5024259;28;19960;-85
2023/02/09 09:09:06;;;;;;;;;;;;;;;4.88;nan;103379.72;5026706;28;19983;-82
2023/02/09 09:11:31;;;;;;;;;;;;;;;4.96;nan;103374.50;5022736;28;19917;-84
2023/02/09 09:13:57;;;;;;;;;;;;;;;5.07;nan;103369.03;5024846;28;19925;-84
2023/02/09 09:16:23;;;;;;;;;;;;;;;5.12;nan;103380.03;5026864;28;19958;-83
2023/02/09 09:18:48;;;;;;;;;;;;;;;5.31;nan;103370.28;5023131;28;19917;-85
2023/02/09 09:21:15;;;;;;;;;;;;;;;5.47;nan;103373.13;5019424;28;19972;-86
2023/02/09 09:23:41;;;;;;;;;;;;;;;5.47;nan;103367.78;5020177;28;20455;-86
2023/02/09 09:26:07;;;;;;;;;;;;;;;5.49;nan;103365.81;5021404;28;19929;-84
2023/02/09 09:28:32;;;;;;;;;;;;;;;5.61;nan;103367.28;5020306;28;19921;-84
2023/02/09 09:31:00;;;;;;;;;;;;;;;5.57;nan;103360.59;5023246;28;20395;-85
2023/02/09 09:33:26;;;;;;;;;;;;;;;5.64;nan;103347.53;5027001;28;19928;-85
2023/02/09 09:35:51;;;;;;;;;;;;;;;5.72;nan;103355.56;5023624;28;19925;-85
2023/02/09 09:38:16;;;;;;;;;;;;;;;5.82;nan;103355.50;5025729;28;19997;-84
2023/02/09 09:40:43;;;;;;;;;;;;;;;5.80;nan;103349.50;5019908;28;19921;-84
2023/02/09 09:43:18;;;;;;;;;;;;;;;5.89;nan;103345.91;5028133;28;19925;-84
2023/02/09 09:45:44;;;;;;;;;;;;;;;5.99;nan;103336.88;5023787;28;19921;-85
2023/02/09 09:48:21;;;;;;;;;;;;;;;6.14;nan;103334.50;5038041;28;19932;-84
2023/02/09 09:50:47;;;;;;;;;;;;;;;6.23;nan;103314.09;5024211;28;19917;-84
2023/02/09 09:53:15;;;;;;;;;;;;;;;6.29;nan;103306.31;5020634;28;19925;-85
2023/02/09 09:55:43;;;;;;;;;;;;;;;6.38;nan;103301.88;5024133;28;20333;-85
2023/02/09 09:58:14;;;;;;;;;;;;;;;6.38;nan;103309.03;5023728;28;19917;-85
2023/02/09 10:00:40;;;;;;;;;;;;;;;6.41;nan;103314.03;5024601;28;20329;-84
2023/02/09 10:03:31;;;;;;;;;;;;;;;6.54;nan;103317.94;5023892;28;19927;-85
2023/02/09 10:06:00;;;;;;;;;;;;;;;6.57;nan;103314.97;5020336;28;19917;-86
2023/02/09 10:08:26;;;;;;;;;;;;;;;6.72;nan;103322.34;5022414;28;20134;-85
2023/02/09 10:11:05;;;;;;;;;;;;;;;6.67;nan;103322.84;5023032;28;19935;-85
2023/02/09 10:13:35;;;;;;;;;;;;;;;6.71;nan;103316.19;5024173;28;19937;-85
2023/02/09 10:19:05;;;;;;;;;;;;;;;6.70;nan;103308.38;5022421;28;19924;-84
2023/02/09 10:21:33;;;;;;;;;;;;;;;6.68;nan;103300.53;5023434;28;19920;-85
2023/02/09 10:23:58;;;;;;;;;;;;;;;6.71;nan;103316.19;5024077;28;19980;-84
2023/02/09 10:26:25;;;;;;;;;;;;;;;6.72;nan;103303.72;5024298;28;19952;-85
2023/02/09 10:28:53;;;;;;;;;;;;;;;6.71;nan;103294.88;5023203;28;20552;-86
2023/02/09 10:31:30;;;;;;;;;;;;;;;6.78;nan;103290.56;5022787;28;20035;-85
2023/02/09 10:34:08;;;;;;;;;;;;;;;6.85;nan;103288.94;5023207;28;19926;-85
2023/02/09 10:36:52;;;;;;;;;;;;;;;6.96;nan;103285.97;5023797;28;19917;-85
2023/02/09 10:39:21;;;;;;;;;;;;;;;7.11;nan;103282.69;5019661;28;19936;-86
2023/02/09 10:41:51;;;;;;;;;;;;;;;7.18;nan;103281.00;5022177;28;20024;-86
2023/02/09 10:44:21;;;;;;;;;;;;;;;7.23;nan;103281.38;5022769;28;19927;-87
2023/02/09 10:46:47;;;;;;;;;;;;;;;7.38;nan;103268.25;5024504;28;19974;-85
2023/02/09 10:49:30;;;;;;;;;;;;;;;7.46;nan;103260.22;5018394;28;20439;-87
2023/02/09 10:51:59;;;;;;;;;;;;;;;7.60;nan;103248.06;5020269;28;20052;-85
2023/02/09 10:54:26;;;;;;;;;;;;;;;7.64;nan;103234.22;5022160;28;19917;-85
2023/02/09 10:56:52;;;;;;;;;;;;;;;7.77;nan;103218.53;5023115;28;20363;-85
2023/02/09 10:59:19;;;;;;;;;;;;;;;7.87;nan;103221.00;5022367;28;19918;-86
2023/02/09 11:01:50;;;;;;;;;;;;;;;7.82;nan;103212.69;5022765;28;19925;-85
2023/02/09 11:04:18;;;;;;;;;;;;;;;7.83;nan;103217.00;5017941;28;20359;-86
2023/02/09 11:06:46;;;;;;;;;;;;;;;7.99;nan;103222.31;5019138;28;19991;-87
2023/02/09 11:09:15;;;;;;;;;;;;;;;8.04;nan;103219.97;5021746;28;19921;-87
2023/02/09 11:11:42;;;;;;;;;;;;;;;8.10;nan;103210.47;5021153;28;20345;-87
2023/02/09 11:14:14;;;;;;;;;;;;;;;8.16;nan;103218.59;5021092;28;19936;-86
2023/02/09 11:16:48;;;;;;;;;;;;;;;8.21;nan;103212.75;5019241;28;19921;-85
2023/02/09 11:19:13;;;;;;;;;;;;;;;8.28;nan;103212.91;5018618;28;19964;-84
2023/02/09 11:22:03;;;;;;;;;;;;;;;8.36;nan;103207.53;5022656;28;20331;-86
2023/02/09 11:24:37;;;;;;;;;;;;;;;8.41;nan;103215.88;5024325;28;20308;-85
2023/02/09 11:27:05;;;;;;;;;;;;;;;8.44;nan;103204.84;5022557;28;19921;-88
2023/02/09 11:29:34;;;;;;;;;;;;;;;8.52;nan;103220.00;5027677;28;19921;-86
2023/02/09 11:32:18;;;;;;;;;;;;;;;8.54;nan;103221.50;5022315;28;20448;-85
2023/02/09 11:34:43;;;;;;;;;;;;;;;8.50;nan;103216.69;5017011;28;19974;-86
2023/02/09 11:37:27;;;;;;;;;;;;;;;8.63;nan;103215.13;5014621;28;20004;-86
2023/02/09 11:40:11;;;;;;;;;;;;;;;8.72;nan;103206.03;5019919;28;20418;-87
2023/02/09 11:42:45;;;;;;;;;;;;;;;8.84;nan;103208.31;5020419;28;19917;-84
2023/02/09 11:45:13;;;;;;;;;;;;;;;8.94;nan;103207.06;5020140;28;19963;-84
2023/02/09 11:47:53;;;;;;;;;;;;;;;8.98;nan;103202.22;5018216;28;19917;-85
2023/02/09 11:50:25;;;;;;;;;;;;;;;8.89;nan;103196.06;5016648;28;20158;-85
2023/02/09 11:52:54;;;;;;;;;;;;;;;8.90;nan;103187.03;5022490;28;20007;-86
2023/02/09 11:55:27;;;;;;;;;;;;;;;8.91;nan;103177.19;5019162;28;19940;-87
2023/02/09 11:58:07;;;;;;;;;;;;;;;8.91;nan;103169.16;5036597;28;19921;-86
2023/02/09 12:00:38;;;;;;;;;;;;;;;8.92;nan;103165.47;5020266;28;19952;-84
2023/02/09 12:03:09;;;;;;;;;;;;;;;8.85;nan;103165.38;5017816;28;19924;-86
2023/02/09 12:05:35;;;;;;;;;;;;;;;9.00;nan;103157.41;5017015;28;19928;-85
2023/02/09 12:08:24;;;;;;;;;;;;;;;9.02;nan;103161.56;5021295;28;20314;-85
2023/02/09 12:11:08;;;;;;;;;;;;;;;9.11;nan;103165.00;5019231;28;19921;-86
2023/02/09 12:13:53;;;;;;;;;;;;;;;9.16;nan;103173.34;5020796;28;20314;-85
2023/02/09 12:16:23;;;;;;;;;;;;;;;9.20;nan;103158.59;5017779;28;20082;-86
2023/02/09 12:18:52;;;;;;;;;;;;;;;9.34;nan;103160.47;5021193;28;19917;-85
2023/02/09 12:21:31;;;;;;;;;;;;;;;9.50;nan;103162.13;5022457;28;19917;-86
2023/02/09 12:23:56;;;;;;;;;;;;;;;9.60;nan;103159.22;5018742;28;20584;-85
2023/02/09 12:26:34;;;;;;;;;;;;;;;9.59;nan;103154.88;5023180;28;19925;-86
2023/02/09 12:29:19;;;;;;;;;;;;;;;9.72;nan;103149.72;5021721;28;19932;-86
2023/02/09 12:32:03;;;;;;;;;;;;;;;9.72;nan;103152.41;5017721;28;19961;-86
2023/02/09 12:34:38;;;;;;;;;;;;;;;9.79;nan;103158.66;5023510;28;21142;-87
2023/02/09 12:37:12;;;;;;;;;;;;;;;9.90;nan;103152.03;5025249;28;19924;-85
2023/02/09 12:39:37;;;;;;;;;;;;;;;9.99;nan;103158.94;5027090;28;19917;-85
2023/02/09 12:42:02;;;;;;;;;;;;;;;10.08;nan;103155.16;5025102;28;19917;-86
2023/02/09 12:44:31;;;;;;;;;;;;;;;10.04;nan;103166.41;5025039;28;20376;-86
2023/02/09 12:46:56;;;;;;;;;;;;;;;9.99;nan;103172.34;5020301;28;19925;-87
2023/02/09 12:49:28;;;;;;;;;;;;;;;10.03;nan;103164.75;5020403;28;19917;-87
2023/02/09 12:51:53;;;;;;;;;;;;;;;10.19;nan;103172.59;5022768;28;20410;-86
2023/02/09 12:54:27;;;;;;;;;;;;;;;10.28;nan;103174.22;5021776;28;20020;-86
2023/02/09 12:56:52;;;;;;;;;;;;;;;10.46;nan;103192.56;5015961;28;19933;-87
2023/02/09 12:59:20;;;;;;;;;;;;;;;10.58;nan;103194.56;5017787;28;19925;-85
2023/02/09 13:02:03;;;;;;;;;;;;;;;10.66;nan;103190.94;5016146;28;20201;-86
2023/02/09 13:04:38;;;;;;;;;;;;;;;10.83;nan;103200.44;5018049;28;20149;-85
2023/02/09 13:07:06;;;;;;;;;;;;;;;10.76;nan;103199.50;5015304;28;20012;-86
2023/02/09 13:09:40;;;;;;;;;;;;;;;10.67;nan;103205.19;5015390;28;21095;-86
2023/02/09 13:12:13;;;;;;;;;;;;;;;10.48;nan;103193.22;5014829;28;19932;-86
2023/02/09 13:14:43;;;;;;;;;;;;;;;10.33;nan;103195.06;5013921;28;19925;-85
2023/02/09 13:17:09;;;;;;;;;;;;;;;10.36;nan;103198.22;5017308;28;19925;-84
2023/02/09 13:19:45;;;;;;;;;;;;;;;10.39;nan;103200.50;5013437;28;19987;-85
2023/02/09 13:22:13;;;;;;;;;;;;;;;10.49;nan;103203.75;5015325;28;20441;-85
2023/02/09 13:24:47;;;;;;;;;;;;;;;10.76;nan;103199.50;5014570;28;20339;-85
2023/02/09 13:27:18;;;;;;;;;;;;;;;10.88;nan;103205.22;5016582;28;20543;-84